createdAt,value
2023-04-20T00:01:59.734Z,6.05
2023-04-20T00:04:30.291Z,7.13
2023-04-20T00:07:02.356Z,4.60
2023-04-20T00:09:32.841Z,4.78
2023-04-20T00:12:03.354Z,6.70
2023-04-20T00:14:33.929Z,4.72
2023-04-20T00:17:04.453Z,5.68
2023-04-20T00:19:35.469Z,6.28
2023-04-20T00:22:07.700Z,4.43
2023-04-20T00:24:38.302Z,5.30
2023-04-20T00:27:09.099Z,4.53
2023-04-20T00:29:39.481Z,5.15
2023-04-20T00:32:10.549Z,4.28
2023-04-20T00:34:41.366Z,4.28
2023-04-20T00:37:14.047Z,5.47
2023-04-20T00:39:44.755Z,5.40
2023-04-20T00:42:15.502Z,4.85
2023-04-20T00:44:46.275Z,4.65
2023-04-20T00:47:16.722Z,4.68
2023-04-20T00:49:47.670Z,5.25
2023-04-20T00:52:20.172Z,4.95
2023-04-20T00:54:51.684Z,4.70
2023-04-20T00:57:24.982Z,4.55
2023-04-20T00:59:56.159Z,4.90
2023-04-20T01:02:27.136Z,4.43
2023-04-20T01:04:58.422Z,5.00
2023-04-20T01:07:31.409Z,4.55
2023-04-20T01:10:01.998Z,4.45
2023-04-20T01:12:32.762Z,3.88
2023-04-20T01:15:03.470Z,4.00
2023-04-20T01:17:34.227Z,5.35
2023-04-20T01:20:04.879Z,4.30
2023-04-20T01:22:37.062Z,4.43
2023-04-20T01:25:08.249Z,5.05
2023-04-20T01:27:39.010Z,4.78
2023-04-20T01:30:10.689Z,3.92
2023-04-20T01:32:41.458Z,4.68
2023-04-20T01:35:12.469Z,4.60
2023-04-20T01:37:45.167Z,3.60
2023-04-20T01:40:17.205Z,4.10
2023-04-20T01:42:48.573Z,4.10
2023-04-20T01:45:19.029Z,3.63
2023-04-20T01:47:49.562Z,3.72
2023-04-20T01:50:20.206Z,3.42
2023-04-20T01:52:52.489Z,3.83
2023-04-20T01:55:23.309Z,3.50
2023-04-20T01:57:53.904Z,3.75
2023-04-20T02:00:24.414Z,3.38
2023-04-20T02:02:55.126Z,3.42
2023-04-20T02:05:26.474Z,3.10
2023-04-20T02:07:58.744Z,2.85
2023-04-20T02:10:29.274Z,3.58
2023-04-20T02:12:59.941Z,2.78
2023-04-20T02:15:30.606Z,2.95
2023-04-20T02:18:01.135Z,2.70
2023-04-20T02:20:31.747Z,3.28
2023-04-20T02:25:51.188Z,3.42
2023-04-20T02:28:21.777Z,3.20
2023-04-20T02:30:52.192Z,2.85
2023-04-20T02:33:23.793Z,2.90
2023-04-20T02:35:54.253Z,3.20
2023-04-20T02:38:26.426Z,2.60
2023-04-20T02:40:56.893Z,2.65
2023-04-20T02:43:27.747Z,3.05
2023-04-20T02:45:58.311Z,2.90
2023-04-20T02:48:28.806Z,3.17
2023-04-20T02:50:59.388Z,2.90
2023-04-20T02:53:31.623Z,3.28
2023-04-20T02:56:02.162Z,3.17
2023-04-20T02:58:32.684Z,3.70
2023-04-20T03:01:03.819Z,3.90
2023-04-20T03:03:34.791Z,3.58
2023-04-20T03:06:05.387Z,3.65
2023-04-20T03:08:37.957Z,3.35
2023-04-20T03:11:08.498Z,3.85
2023-04-20T03:13:38.895Z,3.40
2023-04-20T03:16:09.744Z,3.60
2023-04-20T03:18:40.475Z,3.17
2023-04-20T03:21:13.618Z,3.38
2023-04-20T03:23:45.824Z,3.30
2023-04-20T03:26:16.292Z,3.80
2023-04-20T03:28:46.821Z,3.50
2023-04-20T03:31:17.401Z,3.63
2023-04-20T03:33:48.610Z,3.63
2023-04-20T03:36:19.675Z,3.92
2023-04-20T03:38:51.647Z,3.28
2023-04-20T03:41:22.169Z,3.45
2023-04-20T03:43:58.606Z,3.72
2023-04-20T03:46:29.325Z,3.28
2023-04-20T03:48:59.982Z,3.30
2023-04-20T03:51:30.694Z,3.45
2023-04-20T03:54:14.175Z,3.22
2023-04-20T03:56:45.500Z,3.80
2023-04-20T03:59:16.306Z,4.57
2023-04-20T04:01:47.164Z,4.13
2023-04-20T04:04:18.176Z,4.97
2023-04-20T04:06:48.967Z,4.70
2023-04-20T04:09:21.145Z,4.72
2023-04-20T04:11:51.683Z,4.75
2023-04-20T04:14:22.176Z,4.95
2023-04-20T04:16:52.894Z,5.07
2023-04-20T04:19:23.546Z,5.05
2023-04-20T04:21:54.008Z,4.80
2023-04-20T04:24:27.775Z,4.95
2023-04-20T04:26:59.350Z,5.32
2023-04-20T04:29:29.974Z,4.85
2023-04-20T04:32:01.636Z,5.47
2023-04-20T04:34:32.177Z,5.28
2023-04-20T04:37:02.709Z,5.68
2023-04-20T04:39:34.851Z,5.95
2023-04-20T04:42:05.610Z,6.07
2023-04-20T04:44:36.490Z,5.97
2023-04-20T04:47:07.232Z,5.22
2023-04-20T04:49:38.171Z,5.50
2023-04-20T04:52:08.635Z,5.47
2023-04-20T04:54:40.784Z,5.47
2023-04-20T04:57:11.316Z,5.40
2023-04-20T04:59:41.798Z,5.38
2023-04-20T05:02:12.296Z,5.35
2023-04-20T05:04:42.909Z,5.88
2023-04-20T05:07:14.908Z,4.75
2023-04-20T05:09:46.934Z,5.70
2023-04-20T05:12:17.517Z,5.40
2023-04-20T05:14:48.102Z,5.90
2023-04-20T05:17:18.589Z,5.53
2023-04-20T05:19:49.042Z,5.53
2023-04-20T05:22:19.596Z,5.40
2023-04-20T05:24:51.838Z,6.45
2023-04-20T05:27:22.393Z,5.75
2023-04-20T05:29:52.826Z,10.55
2023-04-20T05:32:23.302Z,8.43
2023-04-20T05:34:56.971Z,7.18
2023-04-20T05:37:28.261Z,7.00
2023-04-20T05:40:00.387Z,5.97
2023-04-20T05:42:30.894Z,6.32
2023-04-20T05:45:01.554Z,6.18
2023-04-20T05:47:31.972Z,6.43
2023-04-20T05:50:03.248Z,6.80
2023-04-20T05:52:33.750Z,6.13
2023-04-20T05:55:05.856Z,5.65
2023-04-20T05:57:41.736Z,6.78
2023-04-20T06:00:14.067Z,9.10
2023-04-20T06:02:45.192Z,5.85
2023-04-20T06:05:15.884Z,5.35
2023-04-20T06:07:46.499Z,5.88
2023-04-20T06:10:18.931Z,5.55
2023-04-20T06:12:49.406Z,6.03
2023-04-20T06:15:20.039Z,8.90
2023-04-20T06:17:50.653Z,6.25
2023-04-20T06:20:21.573Z,6.60
2023-04-20T06:22:53.245Z,5.80
2023-04-20T06:25:25.834Z,5.65
2023-04-20T06:27:56.378Z,5.20
2023-04-20T06:30:27.124Z,5.18
2023-04-20T06:32:58.004Z,6.72
2023-04-20T06:35:29.735Z,6.40
2023-04-20T06:38:00.404Z,5.40
2023-04-20T06:40:33.010Z,4.47
2023-04-20T06:43:03.639Z,6.20
2023-04-20T06:45:34.349Z,4.55
2023-04-20T06:48:04.929Z,5.32
2023-04-20T06:50:35.543Z,4.15
2023-04-20T06:53:06.696Z,4.70
2023-04-20T06:55:38.763Z,5.20
2023-04-20T06:58:10.007Z,5.72
2023-04-20T07:00:40.524Z,7.28
2023-04-20T07:03:11.168Z,6.03
2023-04-20T07:05:41.805Z,5.00
2023-04-20T07:08:12.210Z,5.40
2023-04-20T07:10:44.281Z,5.95
2023-04-20T07:13:14.732Z,5.25
2023-04-20T07:15:46.086Z,4.90
2023-04-20T07:18:16.600Z,5.07
2023-04-20T07:20:47.106Z,4.43
2023-04-20T07:23:17.569Z,5.28
2023-04-20T07:25:49.759Z,4.80
2023-04-20T07:28:20.258Z,5.18
2023-04-20T07:30:50.850Z,5.35
2023-04-20T07:33:21.935Z,5.88
2023-04-20T07:35:52.312Z,4.93
2023-04-20T07:38:22.739Z,4.80
2023-04-20T07:40:54.722Z,5.20
2023-04-20T07:43:25.154Z,4.60
2023-04-20T07:45:55.738Z,4.78
2023-04-20T07:48:26.458Z,4.15
2023-04-20T07:50:56.930Z,4.22
2023-04-20T07:53:27.342Z,4.03
2023-04-20T07:55:59.419Z,4.05
2023-04-20T07:58:30.002Z,4.10
2023-04-20T08:01:00.574Z,3.85
2023-04-20T08:03:31.405Z,3.80
2023-04-20T08:06:02.553Z,4.15
2023-04-20T08:08:33.043Z,3.95
2023-04-20T08:11:05.276Z,4.47
2023-04-20T08:13:36.075Z,4.20
2023-04-20T08:16:07.477Z,4.07
2023-04-20T08:18:38.180Z,4.00
2023-04-20T08:21:08.709Z,5.05
2023-04-20T08:23:39.155Z,5.32
2023-04-20T08:26:11.220Z,4.25
2023-04-20T08:28:41.631Z,5.13
2023-04-20T08:31:12.215Z,5.53
2023-04-20T08:33:42.719Z,6.40
2023-04-20T08:36:13.196Z,6.47
2023-04-20T08:38:43.800Z,6.50
2023-04-20T08:41:16.123Z,6.65
2023-04-20T08:43:47.559Z,6.60
2023-04-20T08:46:18.166Z,6.60
2023-04-20T08:48:50.681Z,7.07
2023-04-20T08:51:21.206Z,7.35
2023-04-20T08:53:51.820Z,6.40
2023-04-20T08:56:23.847Z,5.88
2023-04-20T08:58:54.386Z,5.72
2023-04-20T09:01:35.552Z,6.45
2023-04-20T09:04:19.172Z,6.57
2023-04-20T09:06:53.901Z,7.38
2023-04-20T09:09:28.092Z,8.05
2023-04-20T09:12:10.590Z,9.18
2023-04-20T09:14:48.482Z,7.78
2023-04-20T09:17:20.041Z,7.20
2023-04-20T09:19:57.205Z,5.43
2023-04-20T09:22:35.160Z,6.30
2023-04-20T09:25:19.983Z,6.18
2023-04-20T09:28:00.748Z,6.43
2023-04-20T09:30:41.801Z,5.72
2023-04-20T09:33:18.304Z,6.40
2023-04-20T09:35:51.880Z,5.55
2023-04-20T09:38:31.829Z,5.45
2023-04-20T09:41:04.293Z,6.22
2023-04-20T09:43:38.079Z,5.75
2023-04-20T09:46:13.370Z,5.30
2023-04-20T09:48:46.509Z,4.47
2023-04-20T09:51:17.981Z,4.70
2023-04-20T09:53:53.367Z,5.35
2023-04-20T09:56:27.045Z,5.13
2023-04-20T09:58:59.881Z,5.00
2023-04-20T10:01:34.640Z,5.07
2023-04-20T10:05:32.624Z,5.45
2023-04-20T10:08:03.696Z,4.90
2023-04-20T10:10:34.567Z,4.43
2023-04-20T10:13:05.331Z,4.90
2023-04-20T10:15:45.225Z,5.10
2023-04-20T10:21:10.265Z,5.20
2023-04-20T10:23:59.923Z,6.43
2023-04-20T10:26:40.223Z,4.60
2023-04-20T10:29:13.344Z,4.72
2023-04-20T10:31:51.908Z,4.25
2023-04-20T10:34:33.826Z,4.32
2023-04-20T10:37:11.882Z,5.13
2023-04-20T10:39:48.336Z,5.25
2023-04-20T10:42:18.921Z,4.40
2023-04-20T10:44:52.715Z,5.32
2023-04-20T10:47:33.379Z,5.03
2023-04-20T10:50:11.842Z,5.43
2023-04-20T10:52:52.434Z,5.00
2023-04-20T10:55:29.296Z,5.18
2023-04-20T10:58:00.576Z,5.53
2023-04-20T11:00:32.383Z,4.85
2023-04-20T11:03:07.341Z,5.40
2023-04-20T11:05:40.784Z,6.13
2023-04-20T11:08:11.416Z,4.80
2023-04-20T11:10:43.638Z,4.90
2023-04-20T11:13:24.247Z,6.20
2023-04-20T11:15:55.004Z,5.13
2023-04-20T11:18:27.318Z,5.50
2023-04-20T11:20:58.583Z,4.75
2023-04-20T11:23:41.259Z,5.95
2023-04-20T11:26:11.969Z,5.22
2023-04-20T11:28:54.511Z,4.68
2023-04-20T11:31:29.895Z,5.60
2023-04-20T11:34:04.822Z,4.95
2023-04-20T11:36:42.605Z,5.10
2023-04-20T11:39:14.663Z,5.40
2023-04-20T11:41:46.124Z,4.60
2023-04-20T11:44:21.684Z,5.32
2023-04-20T11:46:54.968Z,5.38
2023-04-20T11:49:32.147Z,5.30
2023-04-20T11:52:02.966Z,4.63
2023-04-20T11:54:35.878Z,4.45
2023-04-20T11:57:06.528Z,4.53
2023-04-20T11:59:37.686Z,5.82
2023-04-20T12:02:08.545Z,5.45
2023-04-20T12:04:51.389Z,5.13
2023-04-20T12:07:24.628Z,5.97
2023-04-20T12:09:55.229Z,4.97
2023-04-20T12:12:30.265Z,5.47
2023-04-20T12:15:03.016Z,4.90
2023-04-20T12:17:33.699Z,5.15
2023-04-20T12:20:09.636Z,5.88
2023-04-20T12:22:42.418Z,6.55
2023-04-20T12:25:14.661Z,5.57
2023-04-20T12:27:45.375Z,7.50
2023-04-20T12:30:17.603Z,7.15
2023-04-20T12:32:48.119Z,5.60
2023-04-20T12:35:23.458Z,6.65
2023-04-20T12:37:54.576Z,6.68
2023-04-20T12:40:26.038Z,6.10
2023-04-20T12:42:57.312Z,6.40
2023-04-20T12:45:29.181Z,6.47
2023-04-20T12:48:00.721Z,7.22
2023-04-20T12:50:33.586Z,7.45
2023-04-20T12:53:10.585Z,8.48
2023-04-20T12:55:46.846Z,9.18
2023-04-20T12:58:21.664Z,4.85
2023-04-20T13:00:52.297Z,5.28
2023-04-20T13:03:35.068Z,5.47
2023-04-20T13:06:12.960Z,6.32
2023-04-20T13:08:44.969Z,3.50
2023-04-20T13:11:16.919Z,4.15
2023-04-20T13:13:50.372Z,3.88
2023-04-20T13:16:23.974Z,3.72
2023-04-20T13:19:08.696Z,4.05
2023-04-20T13:21:46.406Z,3.90
2023-04-20T13:24:18.419Z,3.58
2023-04-20T13:26:50.297Z,3.40
2023-04-20T13:29:21.797Z,4.00
2023-04-20T13:31:53.452Z,3.58
2023-04-20T13:34:24.953Z,4.00
2023-04-20T13:36:59.333Z,9.25
2023-04-20T13:39:31.267Z,4.40
2023-04-20T13:42:02.816Z,4.40
2023-04-20T13:44:34.572Z,4.30
2023-04-20T13:47:06.484Z,3.78
2023-04-20T13:49:38.048Z,4.85
2023-04-20T13:52:11.497Z,3.53
2023-04-20T13:54:42.977Z,3.97
2023-04-20T13:57:15.231Z,3.38
2023-04-20T13:59:47.006Z,3.53
2023-04-20T14:02:18.590Z,3.38
2023-04-20T14:04:50.119Z,3.83
2023-04-20T14:07:23.320Z,3.85
2023-04-20T14:09:57.275Z,5.75
2023-04-20T14:12:47.871Z,4.90
2023-04-20T14:15:18.460Z,3.15
2023-04-20T14:17:52.235Z,2.88
2023-04-20T14:20:24.148Z,4.50
2023-04-20T14:22:58.449Z,4.30
2023-04-20T14:25:30.877Z,3.22
2023-04-20T14:28:01.305Z,3.42
2023-04-20T14:30:31.956Z,4.32
2023-04-20T14:33:04.711Z,3.50
2023-04-20T14:35:35.879Z,3.17
2023-04-20T14:38:15.573Z,3.58
2023-04-20T14:40:46.216Z,3.33
2023-04-20T14:43:17.103Z,3.35
2023-04-20T14:45:52.235Z,3.10
2023-04-20T14:48:25.006Z,17.30
2023-04-20T14:50:56.615Z,5.68
2023-04-20T14:53:30.106Z,5.53
2023-04-20T14:56:01.633Z,7.65
2023-04-20T14:58:32.326Z,4.85
2023-04-20T15:01:02.769Z,4.70
2023-04-20T15:03:34.045Z,3.95
2023-04-20T15:06:06.209Z,4.53
2023-04-20T15:08:41.174Z,6.07
2023-04-20T15:11:11.623Z,6.38
2023-04-20T15:13:42.130Z,4.80
2023-04-20T15:16:15.592Z,3.70
2023-04-20T15:18:48.251Z,5.10
2023-04-20T15:21:18.777Z,3.80
2023-04-20T15:23:51.741Z,3.22
2023-04-20T15:26:27.748Z,3.13
2023-04-20T15:28:58.516Z,2.95
2023-04-20T15:31:33.350Z,3.67
2023-04-20T15:34:08.579Z,3.65
2023-04-20T15:36:40.301Z,3.60
2023-04-20T15:39:29.671Z,3.10
2023-04-20T15:42:00.456Z,3.60
2023-04-20T15:44:31.528Z,3.45
2023-04-20T15:47:04.003Z,3.88
2023-04-20T15:49:37.106Z,3.88
2023-04-20T15:52:07.841Z,2.95
2023-04-20T15:54:40.780Z,3.58
2023-04-20T15:57:13.137Z,3.90
2023-04-20T15:59:43.642Z,4.07
2023-04-20T16:02:19.946Z,3.55
2023-04-20T16:04:50.440Z,3.88
2023-04-20T16:07:21.051Z,4.30
2023-04-20T16:09:53.156Z,3.63
2023-04-20T16:12:23.744Z,3.92
2023-04-20T16:14:54.434Z,4.13
2023-04-20T16:17:24.968Z,4.50
2023-04-20T16:19:55.418Z,5.40
2023-04-20T16:22:31.593Z,5.57
2023-04-20T16:25:08.109Z,4.30
2023-04-20T16:27:38.862Z,4.47
2023-04-20T16:30:10.768Z,4.18
2023-04-20T16:32:48.789Z,4.93
2023-04-20T16:35:26.992Z,4.85
2023-04-20T16:37:58.480Z,5.35
2023-04-20T16:40:30.543Z,4.82
2023-04-20T16:43:05.568Z,4.88
2023-04-20T16:45:37.029Z,5.18
2023-04-20T16:48:08.878Z,4.93
2023-04-20T16:50:40.912Z,4.75
2023-04-20T16:53:18.575Z,5.22
2023-04-20T16:55:50.656Z,4.90
2023-04-20T16:58:21.228Z,5.20
2023-04-20T17:00:51.711Z,5.13
2023-04-20T17:03:22.448Z,4.78
2023-04-20T17:05:57.606Z,4.47
2023-04-20T17:08:29.728Z,4.70
2023-04-20T17:11:02.635Z,3.72
2023-04-20T17:13:36.357Z,3.90
2023-04-20T17:16:07.240Z,3.20
2023-04-20T17:18:41.700Z,3.60
2023-04-20T17:21:12.423Z,3.60
2023-04-20T17:23:46.917Z,3.50
2023-04-20T17:26:18.926Z,3.53
2023-04-20T17:28:49.477Z,3.35
2023-04-20T17:31:21.518Z,3.70
2023-04-20T17:33:54.216Z,3.75
2023-04-20T17:36:24.723Z,3.90
2023-04-20T17:38:57.031Z,3.40
2023-04-20T17:41:32.938Z,3.13
2023-04-20T17:44:03.293Z,3.10
2023-04-20T17:46:40.019Z,3.47
2023-04-20T17:49:10.539Z,2.58
2023-04-20T17:51:40.847Z,3.13
2023-04-20T17:54:12.128Z,3.28
2023-04-20T17:56:44.213Z,3.00
2023-04-20T17:59:14.591Z,3.28
2023-04-20T18:01:48.047Z,3.15
2023-04-20T18:04:19.016Z,3.38
2023-04-20T18:06:55.040Z,2.60
2023-04-20T18:09:28.524Z,3.35
2023-04-20T18:12:00.692Z,2.70
2023-04-20T18:14:31.069Z,3.05
2023-04-20T18:17:01.542Z,2.85
2023-04-20T18:19:36.509Z,2.65
2023-04-20T18:22:07.274Z,2.70
2023-04-20T18:24:43.763Z,3.25
2023-04-20T18:27:17.357Z,2.83
2023-04-20T18:29:52.418Z,3.30
2023-04-20T18:32:25.076Z,3.05
2023-04-20T18:34:55.518Z,3.13
2023-04-20T18:37:26.014Z,3.95
2023-04-20T18:39:59.350Z,2.40
2023-04-20T18:42:31.379Z,3.08
2023-04-20T18:45:09.684Z,2.38
2023-04-20T18:47:40.234Z,3.03
2023-04-20T18:50:11.594Z,3.70
2023-04-20T18:52:44.898Z,2.92
2023-04-20T18:55:19.862Z,2.63
2023-04-20T18:57:56.974Z,2.45
2023-04-20T19:00:29.951Z,2.42
2023-04-20T19:03:00.596Z,3.08
2023-04-20T19:05:36.773Z,2.30
2023-04-20T19:08:07.269Z,2.33
2023-04-20T19:10:41.592Z,2.67
2023-04-20T19:13:18.424Z,2.28
2023-04-20T19:15:48.902Z,2.08
2023-04-20T19:18:19.681Z,3.03
2023-04-20T19:20:50.084Z,2.60
2023-04-20T19:23:22.473Z,2.03
2023-04-20T19:25:55.201Z,2.97
2023-04-20T19:28:27.303Z,2.28
2023-04-20T19:30:57.831Z,2.70
2023-04-20T19:33:34.261Z,2.58
2023-04-20T19:36:07.081Z,2.60
2023-04-20T19:38:39.474Z,2.88
2023-04-20T19:41:10.036Z,3.10
2023-04-20T19:43:46.241Z,2.33
2023-04-20T19:46:17.161Z,5.25
2023-04-20T19:48:47.953Z,10.52
2023-04-20T19:51:23.093Z,4.07
2023-04-20T19:53:55.807Z,2.70
2023-04-20T19:56:29.384Z,2.53
2023-04-20T19:59:03.372Z,2.47
2023-04-20T20:01:33.879Z,3.03
2023-04-20T20:04:04.598Z,2.70
2023-04-20T20:06:35.132Z,2.55
2023-04-20T20:09:06.979Z,3.83
2023-04-20T20:11:37.338Z,3.33
2023-04-20T20:14:09.453Z,2.40
2023-04-20T20:16:39.774Z,3.20
2023-04-20T20:19:10.130Z,2.60
2023-04-20T20:21:40.616Z,3.10
2023-04-20T20:24:11.112Z,2.40
2023-04-20T20:26:41.512Z,2.40
2023-04-20T20:29:13.570Z,2.35
2023-04-20T20:31:44.044Z,2.72
2023-04-20T20:34:14.643Z,2.50
2023-04-20T20:36:47.827Z,4.35
2023-04-20T20:39:18.657Z,3.60
2023-04-20T20:41:51.986Z,3.00
2023-04-20T20:44:24.129Z,3.83
2023-04-20T20:46:54.652Z,4.43
2023-04-20T20:49:25.122Z,3.63
2023-04-20T20:51:55.541Z,4.20
2023-04-20T20:54:25.966Z,2.80
2023-04-20T20:56:56.379Z,4.63
2023-04-20T20:59:28.361Z,4.30
2023-04-20T21:01:58.883Z,3.53
2023-04-20T21:04:30.703Z,2.67
2023-04-20T21:07:01.360Z,3.47
2023-04-20T21:09:31.903Z,2.63
2023-04-20T21:12:03.198Z,1.70
2023-04-20T21:14:35.544Z,2.10
2023-04-20T21:17:06.095Z,2.00
2023-04-20T21:19:36.586Z,2.75
2023-04-20T21:22:07.212Z,2.58
2023-04-20T21:24:38.767Z,3.00
2023-04-20T21:27:09.293Z,2.97
2023-04-20T21:29:41.427Z,2.13
2023-04-20T21:32:12.098Z,2.00
2023-04-20T21:34:42.594Z,2.00
2023-04-20T21:37:16.488Z,2.10
2023-04-20T21:39:46.998Z,2.67
2023-04-20T21:42:17.530Z,2.28
2023-04-20T21:44:49.624Z,2.35
2023-04-20T21:47:20.939Z,1.88
2023-04-20T21:49:51.381Z,2.10
2023-04-20T21:52:21.936Z,2.10
2023-04-20T21:54:52.618Z,2.35
2023-04-20T21:57:23.171Z,1.75
2023-04-20T21:59:55.292Z,2.05
2023-04-20T22:02:25.873Z,2.95
2023-04-20T22:04:56.725Z,2.50
2023-04-20T22:07:28.515Z,2.42
2023-04-20T22:09:58.979Z,2.35
2023-04-20T22:12:39.455Z,2.15
2023-04-20T22:15:15.919Z,2.50
2023-04-20T22:17:47.732Z,3.10
2023-04-20T22:20:20.206Z,2.25
2023-04-20T22:22:50.714Z,1.75
2023-04-20T22:25:21.450Z,1.85
2023-04-20T22:27:52.000Z,2.40
2023-04-20T22:30:24.106Z,2.00
2023-04-20T22:32:54.629Z,1.73
2023-04-20T22:35:25.145Z,1.90
2023-04-20T22:37:55.830Z,1.80
2023-04-20T22:40:26.517Z,1.65
2023-04-20T22:42:56.892Z,1.75
2023-04-20T22:45:29.108Z,1.65
2023-04-20T22:47:59.848Z,1.77
2023-04-20T22:50:30.563Z,1.63
2023-04-20T22:53:03.858Z,2.70
2023-04-20T22:55:34.538Z,2.20
2023-04-20T22:58:17.074Z,1.95
2023-04-20T23:00:49.328Z,1.10
2023-04-20T23:03:19.928Z,1.50
2023-04-20T23:05:50.759Z,2.25
2023-04-20T23:08:21.452Z,2.10
2023-04-20T23:10:52.114Z,1.85
2023-04-20T23:13:22.928Z,1.60
2023-04-20T23:15:55.199Z,1.58
2023-04-20T23:18:25.713Z,1.88
2023-04-20T23:20:56.166Z,2.45
2023-04-20T23:23:26.679Z,1.60
2023-04-20T23:25:57.111Z,1.50
2023-04-20T23:28:27.548Z,1.67
2023-04-20T23:30:59.586Z,1.60
2023-04-20T23:33:29.961Z,1.75
2023-04-20T23:36:01.728Z,2.47
2023-04-20T23:38:32.248Z,2.30
2023-04-20T23:41:02.780Z,1.52
2023-04-20T23:43:33.214Z,1.60
2023-04-20T23:46:05.475Z,1.45
2023-04-20T23:48:36.426Z,1.95
2023-04-20T23:51:07.317Z,1.80
2023-04-20T23:53:38.876Z,2.03
2023-04-20T23:56:10.126Z,1.40
2023-04-20T23:58:40.590Z,1.50
